sensor_id;sensor_type;location;lat;lon;timestamp;temperature;humidity
23507;DHT22;11930;53.076;18.250;2022-08-05T00:01:17;22.30;83.10
23507;DHT22;11930;53.076;18.250;2022-08-05T00:03:49;22.20;83.90
23507;DHT22;11930;53.076;18.250;2022-08-05T00:06:16;22.20;84.60
23507;DHT22;11930;53.076;18.250;2022-08-05T00:08:42;22.10;85.20
23507;DHT22;11930;53.076;18.250;2022-08-05T00:11:11;22.20;86.00
23507;DHT22;11930;53.076;18.250;2022-08-05T00:13:40;22.10;86.60
23507;DHT22;11930;53.076;18.250;2022-08-05T00:16:08;22.00;87.80
23507;DHT22;11930;53.076;18.250;2022-08-05T00:18:38;21.90;89.00
23507;DHT22;11930;53.076;18.250;2022-08-05T00:21:05;21.80;90.20
23507;DHT22;11930;53.076;18.250;2022-08-05T00:23:31;21.70;91.20
23507;DHT22;11930;53.076;18.250;2022-08-05T00:25:57;21.70;91.70
23507;DHT22;11930;53.076;18.250;2022-08-05T00:28:22;21.60;92.50
23507;DHT22;11930;53.076;18.250;2022-08-05T00:30:48;21.60;93.00
23507;DHT22;11930;53.076;18.250;2022-08-05T00:33:17;21.50;93.70
23507;DHT22;11930;53.076;18.250;2022-08-05T00:35:43;21.50;94.20
23507;DHT22;11930;53.076;18.250;2022-08-05T00:38:09;21.50;94.80
23507;DHT22;11930;53.076;18.250;2022-08-05T00:40:48;21.40;95.40
23507;DHT22;11930;53.076;18.250;2022-08-05T00:43:14;21.30;96.50
23507;DHT22;11930;53.076;18.250;2022-08-05T00:45:41;21.20;97.30
23507;DHT22;11930;53.076;18.250;2022-08-05T00:48:13;21.20;97.90
23507;DHT22;11930;53.076;18.250;2022-08-05T00:50:41;21.00;99.50
23507;DHT22;11930;53.076;18.250;2022-08-05T00:53:07;20.90;99.90
23507;DHT22;11930;53.076;18.250;2022-08-05T00:55:34;20.80;99.90
23507;DHT22;11930;53.076;18.250;2022-08-05T00:58:00;20.70;99.90
23507;DHT22;11930;53.076;18.250;2022-08-05T01:00:30;20.50;99.90
23507;DHT22;11930;53.076;18.250;2022-08-05T01:02:56;20.40;99.90
23507;DHT22;11930;53.076;18.250;2022-08-05T01:05:24;20.30;99.90
23507;DHT22;11930;53.076;18.250;2022-08-05T01:07:50;20.20;99.90
23507;DHT22;11930;53.076;18.250;2022-08-05T01:10:21;20.10;99.90
23507;DHT22;11930;53.076;18.250;2022-08-05T01:12:54;19.90;99.90
23507;DHT22;11930;53.076;18.250;2022-08-05T01:15:29;19.90;99.90
23507;DHT22;11930;53.076;18.250;2022-08-05T01:18:04;19.70;99.90
23507;DHT22;11930;53.076;18.250;2022-08-05T01:29:04;19.40;99.90
23507;DHT22;11930;53.076;18.250;2022-08-05T01:31:50;19.30;99.90
23507;DHT22;11930;53.076;18.250;2022-08-05T01:34:31;19.20;99.90
23507;DHT22;11930;53.076;18.250;2022-08-05T01:37:11;19.10;99.90
23507;DHT22;11930;53.076;18.250;2022-08-05T01:39:39;19.10;99.90
23507;DHT22;11930;53.076;18.250;2022-08-05T01:42:08;19.00;99.90
23507;DHT22;11930;53.076;18.250;2022-08-05T01:44:36;18.90;99.90
23507;DHT22;11930;53.076;18.250;2022-08-05T01:47:04;18.80;99.90
23507;DHT22;11930;53.076;18.250;2022-08-05T01:49:32;18.70;99.90
23507;DHT22;11930;53.076;18.250;2022-08-05T01:52:01;18.60;99.90
23507;DHT22;11930;53.076;18.250;2022-08-05T01:54:40;18.60;99.90
23507;DHT22;11930;53.076;18.250;2022-08-05T01:57:08;18.60;99.90
23507;DHT22;11930;53.076;18.250;2022-08-05T01:59:35;18.60;99.90
23507;DHT22;11930;53.076;18.250;2022-08-05T02:02:03;18.60;99.90
23507;DHT22;11930;53.076;18.250;2022-08-05T02:04:34;18.50;99.90
23507;DHT22;11930;53.076;18.250;2022-08-05T02:07:01;18.50;99.90
23507;DHT22;11930;53.076;18.250;2022-08-05T02:09:27;18.50;99.90
23507;DHT22;11930;53.076;18.250;2022-08-05T02:12:18;18.40;99.90
23507;DHT22;11930;53.076;18.250;2022-08-05T02:15:02;18.30;99.90
23507;DHT22;11930;53.076;18.250;2022-08-05T02:17:37;18.30;99.90
23507;DHT22;11930;53.076;18.250;2022-08-05T02:20:09;18.30;99.90
23507;DHT22;11930;53.076;18.250;2022-08-05T02:22:41;18.20;99.90
23507;DHT22;11930;53.076;18.250;2022-08-05T02:25:16;18.10;99.90
23507;DHT22;11930;53.076;18.250;2022-08-05T02:27:45;18.10;99.90
23507;DHT22;11930;53.076;18.250;2022-08-05T02:30:15;18.00;99.90
23507;DHT22;11930;53.076;18.250;2022-08-05T02:32:42;17.90;99.90
23507;DHT22;11930;53.076;18.250;2022-08-05T02:35:14;17.90;99.90
23507;DHT22;11930;53.076;18.250;2022-08-05T02:37:42;17.90;99.90
23507;DHT22;11930;53.076;18.250;2022-08-05T02:40:09;17.80;99.90
23507;DHT22;11930;53.076;18.250;2022-08-05T02:42:36;17.80;99.90
23507;DHT22;11930;53.076;18.250;2022-08-05T02:45:04;17.80;99.90
23507;DHT22;11930;53.076;18.250;2022-08-05T02:47:33;17.70;99.90
23507;DHT22;11930;53.076;18.250;2022-08-05T02:50:02;17.60;99.90
23507;DHT22;11930;53.076;18.250;2022-08-05T02:52:29;17.50;99.90
23507;DHT22;11930;53.076;18.250;2022-08-05T02:54:57;17.40;99.90
23507;DHT22;11930;53.076;18.250;2022-08-05T02:57:24;17.30;99.90
23507;DHT22;11930;53.076;18.250;2022-08-05T02:59:51;17.20;99.90
23507;DHT22;11930;53.076;18.250;2022-08-05T03:02:21;17.20;99.90
23507;DHT22;11930;53.076;18.250;2022-08-05T03:04:49;17.10;99.90
23507;DHT22;11930;53.076;18.250;2022-08-05T03:07:17;17.00;99.90
23507;DHT22;11930;53.076;18.250;2022-08-05T03:09:44;17.00;99.90
23507;DHT22;11930;53.076;18.250;2022-08-05T03:12:29;17.00;99.90
23507;DHT22;11930;53.076;18.250;2022-08-05T03:14:55;16.90;99.90
23507;DHT22;11930;53.076;18.250;2022-08-05T03:17:22;16.90;99.90
23507;DHT22;11930;53.076;18.250;2022-08-05T03:19:47;16.90;99.90
23507;DHT22;11930;53.076;18.250;2022-08-05T03:22:13;16.90;99.90
23507;DHT22;11930;53.076;18.250;2022-08-05T03:24:41;16.90;99.90
23507;DHT22;11930;53.076;18.250;2022-08-05T03:27:07;16.80;99.90
23507;DHT22;11930;53.076;18.250;2022-08-05T03:29:34;16.90;99.90
23507;DHT22;11930;53.076;18.250;2022-08-05T03:32:00;16.80;99.90
23507;DHT22;11930;53.076;18.250;2022-08-05T03:34:27;16.80;99.90
23507;DHT22;11930;53.076;18.250;2022-08-05T03:36:53;16.90;99.90
23507;DHT22;11930;53.076;18.250;2022-08-05T03:39:19;16.90;99.90
23507;DHT22;11930;53.076;18.250;2022-08-05T03:41:45;16.90;99.90
23507;DHT22;11930;53.076;18.250;2022-08-05T03:44:11;17.00;99.90
23507;DHT22;11930;53.076;18.250;2022-08-05T03:46:37;17.00;99.90
23507;DHT22;11930;53.076;18.250;2022-08-05T03:49:03;17.20;99.90
23507;DHT22;11930;53.076;18.250;2022-08-05T03:51:35;17.50;99.90
23507;DHT22;11930;53.076;18.250;2022-08-05T03:54:12;18.30;99.90
23507;DHT22;11930;53.076;18.250;2022-08-05T03:56:41;19.30;99.90
23507;DHT22;11930;53.076;18.250;2022-08-05T03:59:13;20.30;99.90
23507;DHT22;11930;53.076;18.250;2022-08-05T04:01:44;21.20;99.90
23507;DHT22;11930;53.076;18.250;2022-08-05T04:04:12;22.10;99.90
23507;DHT22;11930;53.076;18.250;2022-08-05T04:06:39;23.30;99.90
23507;DHT22;11930;53.076;18.250;2022-08-05T04:09:06;24.10;99.90
23507;DHT22;11930;53.076;18.250;2022-08-05T04:11:34;24.80;99.90
23507;DHT22;11930;53.076;18.250;2022-08-05T04:14:01;25.10;97.60
23507;DHT22;11930;53.076;18.250;2022-08-05T04:16:27;25.40;96.70
23507;DHT22;11930;53.076;18.250;2022-08-05T04:18:53;26.10;93.50
23507;DHT22;11930;53.076;18.250;2022-08-05T04:21:20;26.60;91.50
23507;DHT22;11930;53.076;18.250;2022-08-05T04:23:46;27.00;89.10
23507;DHT22;11930;53.076;18.250;2022-08-05T04:26:13;27.20;86.70
23507;DHT22;11930;53.076;18.250;2022-08-05T04:28:39;27.30;84.60
23507;DHT22;11930;53.076;18.250;2022-08-05T04:31:05;27.70;82.00
23507;DHT22;11930;53.076;18.250;2022-08-05T04:33:32;27.80;80.90
23507;DHT22;11930;53.076;18.250;2022-08-05T04:35:58;28.10;77.40
23507;DHT22;11930;53.076;18.250;2022-08-05T04:38:24;28.60;75.50
23507;DHT22;11930;53.076;18.250;2022-08-05T04:40:50;29.30;72.80
23507;DHT22;11930;53.076;18.250;2022-08-05T04:43:16;29.90;69.00
23507;DHT22;11930;53.076;18.250;2022-08-05T04:45:42;30.10;66.40
23507;DHT22;11930;53.076;18.250;2022-08-05T04:48:10;30.50;64.40
23507;DHT22;11930;53.076;18.250;2022-08-05T04:50:41;30.60;62.60
23507;DHT22;11930;53.076;18.250;2022-08-05T04:53:08;30.30;60.70
23507;DHT22;11930;53.076;18.250;2022-08-05T04:55:38;30.40;60.20
23507;DHT22;11930;53.076;18.250;2022-08-05T04:58:07;30.30;59.20
23507;DHT22;11930;53.076;18.250;2022-08-05T05:00:34;29.60;59.90
23507;DHT22;11930;53.076;18.250;2022-08-05T05:03:01;28.50;62.20
23507;DHT22;11930;53.076;18.250;2022-08-05T05:05:27;27.80;65.40
23507;DHT22;11930;53.076;18.250;2022-08-05T05:07:55;27.00;68.10
23507;DHT22;11930;53.076;18.250;2022-08-05T05:10:21;26.30;70.80
23507;DHT22;11930;53.076;18.250;2022-08-05T05:12:47;25.70;72.20
23507;DHT22;11930;53.076;18.250;2022-08-05T05:15:13;25.20;74.70
23507;DHT22;11930;53.076;18.250;2022-08-05T05:17:41;24.70;76.50
23507;DHT22;11930;53.076;18.250;2022-08-05T05:20:10;24.40;78.20
23507;DHT22;11930;53.076;18.250;2022-08-05T05:22:36;24.40;78.60
23507;DHT22;11930;53.076;18.250;2022-08-05T05:25:03;24.20;80.00
23507;DHT22;11930;53.076;18.250;2022-08-05T05:27:31;24.30;80.90
23507;DHT22;11930;53.076;18.250;2022-08-05T05:29:57;24.70;80.30
23507;DHT22;11930;53.076;18.250;2022-08-05T05:32:23;24.90;77.60
23507;DHT22;11930;53.076;18.250;2022-08-05T05:34:50;24.80;78.60
23507;DHT22;11930;53.076;18.250;2022-08-05T05:37:15;24.70;78.60
23507;DHT22;11930;53.076;18.250;2022-08-05T05:39:42;24.70;79.30
23507;DHT22;11930;53.076;18.250;2022-08-05T05:42:08;24.70;79.30
23507;DHT22;11930;53.076;18.250;2022-08-05T05:44:34;24.80;78.20
23507;DHT22;11930;53.076;18.250;2022-08-05T05:47:00;25.00;78.00
23507;DHT22;11930;53.076;18.250;2022-08-05T05:49:27;25.10;77.40
23507;DHT22;11930;53.076;18.250;2022-08-05T05:51:53;25.20;76.60
23507;DHT22;11930;53.076;18.250;2022-08-05T05:54:20;25.20;76.20
23507;DHT22;11930;53.076;18.250;2022-08-05T05:56:46;25.30;78.00
23507;DHT22;11930;53.076;18.250;2022-08-05T05:59:12;25.30;76.10
23507;DHT22;11930;53.076;18.250;2022-08-05T06:01:39;25.20;76.10
23507;DHT22;11930;53.076;18.250;2022-08-05T06:04:07;25.20;76.30
23507;DHT22;11930;53.076;18.250;2022-08-05T06:06:34;25.10;78.00
23507;DHT22;11930;53.076;18.250;2022-08-05T06:09:01;25.20;77.10
23507;DHT22;11930;53.076;18.250;2022-08-05T06:11:27;25.30;77.20
23507;DHT22;11930;53.076;18.250;2022-08-05T06:13:53;25.40;75.80
23507;DHT22;11930;53.076;18.250;2022-08-05T06:16:19;25.50;75.80
23507;DHT22;11930;53.076;18.250;2022-08-05T06:18:45;25.60;75.00
23507;DHT22;11930;53.076;18.250;2022-08-05T06:21:11;25.70;74.80
23507;DHT22;11930;53.076;18.250;2022-08-05T06:23:37;25.80;73.30
23507;DHT22;11930;53.076;18.250;2022-08-05T06:26:03;26.00;73.20
23507;DHT22;11930;53.076;18.250;2022-08-05T06:28:29;26.20;73.60
23507;DHT22;11930;53.076;18.250;2022-08-05T06:30:55;26.40;73.60
23507;DHT22;11930;53.076;18.250;2022-08-05T06:33:21;26.80;72.50
23507;DHT22;11930;53.076;18.250;2022-08-05T06:35:47;27.40;70.50
23507;DHT22;11930;53.076;18.250;2022-08-05T06:38:13;28.10;68.40
23507;DHT22;11930;53.076;18.250;2022-08-05T06:40:41;28.80;66.20
23507;DHT22;11930;53.076;18.250;2022-08-05T06:43:07;29.10;64.90
23507;DHT22;11930;53.076;18.250;2022-08-05T06:45:33;29.30;64.10
23507;DHT22;11930;53.076;18.250;2022-08-05T06:47:59;29.50;61.80
23507;DHT22;11930;53.076;18.250;2022-08-05T06:50:25;29.80;61.00
23507;DHT22;11930;53.076;18.250;2022-08-05T06:52:52;30.40;61.70
23507;DHT22;11930;53.076;18.250;2022-08-05T06:55:18;31.40;57.50
23507;DHT22;11930;53.076;18.250;2022-08-05T06:57:44;32.60;55.70
23507;DHT22;11930;53.076;18.250;2022-08-05T07:00:10;33.70;51.80
23507;DHT22;11930;53.076;18.250;2022-08-05T07:02:46;34.20;51.40
23507;DHT22;11930;53.076;18.250;2022-08-05T07:05:13;35.30;49.80
23507;DHT22;11930;53.076;18.250;2022-08-05T07:07:39;36.40;46.90
23507;DHT22;11930;53.076;18.250;2022-08-05T07:10:07;37.40;44.70
23507;DHT22;11930;53.076;18.250;2022-08-05T07:12:34;38.00;42.40
23507;DHT22;11930;53.076;18.250;2022-08-05T07:15:18;37.90;42.40
23507;DHT22;11930;53.076;18.250;2022-08-05T07:18:03;38.20;41.70
23507;DHT22;11930;53.076;18.250;2022-08-05T07:20:29;38.70;41.00
23507;DHT22;11930;53.076;18.250;2022-08-05T07:22:55;38.90;39.70
23507;DHT22;11930;53.076;18.250;2022-08-05T07:25:21;39.00;39.20
23507;DHT22;11930;53.076;18.250;2022-08-05T07:27:48;39.30;39.20
23507;DHT22;11930;53.076;18.250;2022-08-05T07:30:14;39.20;40.60
23507;DHT22;11930;53.076;18.250;2022-08-05T07:32:40;39.20;39.10
23507;DHT22;11930;53.076;18.250;2022-08-05T07:35:07;39.80;38.40
23507;DHT22;11930;53.076;18.250;2022-08-05T07:37:33;40.40;37.90
23507;DHT22;11930;53.076;18.250;2022-08-05T07:39:59;41.00;35.90
23507;DHT22;11930;53.076;18.250;2022-08-05T07:42:25;40.30;36.70
23507;DHT22;11930;53.076;18.250;2022-08-05T07:44:51;40.10;36.20
23507;DHT22;11930;53.076;18.250;2022-08-05T07:47:17;40.30;36.20
23507;DHT22;11930;53.076;18.250;2022-08-05T07:49:43;40.30;35.70
23507;DHT22;11930;53.076;18.250;2022-08-05T07:52:09;39.30;38.00
23507;DHT22;11930;53.076;18.250;2022-08-05T07:54:35;39.20;38.60
23507;DHT22;11930;53.076;18.250;2022-08-05T07:57:02;39.40;37.70
23507;DHT22;11930;53.076;18.250;2022-08-05T07:59:28;39.70;37.00
23507;DHT22;11930;53.076;18.250;2022-08-05T08:01:54;40.10;37.10
23507;DHT22;11930;53.076;18.250;2022-08-05T08:04:20;40.60;35.90
23507;DHT22;11930;53.076;18.250;2022-08-05T08:06:46;40.70;34.90
23507;DHT22;11930;53.076;18.250;2022-08-05T08:09:12;40.30;35.90
23507;DHT22;11930;53.076;18.250;2022-08-05T08:11:38;39.20;36.60
23507;DHT22;11930;53.076;18.250;2022-08-05T08:14:04;38.70;37.40
23507;DHT22;11930;53.076;18.250;2022-08-05T08:16:31;38.90;37.10
23507;DHT22;11930;53.076;18.250;2022-08-05T08:18:56;38.70;37.00
23507;DHT22;11930;53.076;18.250;2022-08-05T08:21:22;38.10;37.80
23507;DHT22;11930;53.076;18.250;2022-08-05T08:23:48;38.10;37.70
23507;DHT22;11930;53.076;18.250;2022-08-05T08:26:14;39.00;37.20
23507;DHT22;11930;53.076;18.250;2022-08-05T08:28:40;38.80;35.80
23507;DHT22;11930;53.076;18.250;2022-08-05T08:31:06;38.70;36.50
23507;DHT22;11930;53.076;18.250;2022-08-05T08:33:33;37.80;37.80
23507;DHT22;11930;53.076;18.250;2022-08-05T08:35:58;38.10;36.80
23507;DHT22;11930;53.076;18.250;2022-08-05T08:38:25;37.90;37.10
23507;DHT22;11930;53.076;18.250;2022-08-05T08:40:50;37.70;37.80
23507;DHT22;11930;53.076;18.250;2022-08-05T08:43:18;38.10;37.30
23507;DHT22;11930;53.076;18.250;2022-08-05T08:45:45;38.00;37.40
23507;DHT22;11930;53.076;18.250;2022-08-05T08:48:14;37.60;38.60
23507;DHT22;11930;53.076;18.250;2022-08-05T08:50:42;38.30;37.00
23507;DHT22;11930;53.076;18.250;2022-08-05T08:53:11;38.00;37.20
23507;DHT22;11930;53.076;18.250;2022-08-05T08:55:40;37.90;37.50
23507;DHT22;11930;53.076;18.250;2022-08-05T08:58:06;37.90;37.30
23507;DHT22;11930;53.076;18.250;2022-08-05T09:00:33;37.60;38.20
23507;DHT22;11930;53.076;18.250;2022-08-05T09:03:00;37.20;37.80
23507;DHT22;11930;53.076;18.250;2022-08-05T09:05:26;36.30;39.20
23507;DHT22;11930;53.076;18.250;2022-08-05T09:07:52;35.90;40.30
23507;DHT22;11930;53.076;18.250;2022-08-05T09:10:20;35.30;41.30
23507;DHT22;11930;53.076;18.250;2022-08-05T09:12:47;34.40;41.30
23507;DHT22;11930;53.076;18.250;2022-08-05T09:15:13;34.20;42.80
23507;DHT22;11930;53.076;18.250;2022-08-05T09:17:39;33.70;42.80
23507;DHT22;11930;53.076;18.250;2022-08-05T09:20:06;33.60;44.50
23507;DHT22;11930;53.076;18.250;2022-08-05T09:25:38;33.30;44.50
23507;DHT22;11930;53.076;18.250;2022-08-05T09:28:12;33.30;43.50
23507;DHT22;11930;53.076;18.250;2022-08-05T09:30:53;33.40;44.10
23507;DHT22;11930;53.076;18.250;2022-08-05T09:33:21;33.70;43.10
23507;DHT22;11930;53.076;18.250;2022-08-05T09:36:01;33.40;42.10
23507;DHT22;11930;53.076;18.250;2022-08-05T09:38:28;33.10;43.20
23507;DHT22;11930;53.076;18.250;2022-08-05T09:41:02;33.00;44.10
23507;DHT22;11930;53.076;18.250;2022-08-05T09:43:31;32.90;44.30
23507;DHT22;11930;53.076;18.250;2022-08-05T09:45:57;33.20;44.10
23507;DHT22;11930;53.076;18.250;2022-08-05T09:48:28;33.50;43.40
23507;DHT22;11930;53.076;18.250;2022-08-05T09:51:05;33.50;43.30
23507;DHT22;11930;53.076;18.250;2022-08-05T09:53:52;33.20;43.80
23507;DHT22;11930;53.076;18.250;2022-08-05T09:56:30;33.20;43.20
23507;DHT22;11930;53.076;18.250;2022-08-05T09:59:03;33.20;42.90
23507;DHT22;11930;53.076;18.250;2022-08-05T10:01:31;33.50;43.50
23507;DHT22;11930;53.076;18.250;2022-08-05T10:04:09;33.80;43.50
23507;DHT22;11930;53.076;18.250;2022-08-05T10:06:41;33.60;44.40
23507;DHT22;11930;53.076;18.250;2022-08-05T10:09:16;33.50;45.50
23507;DHT22;11930;53.076;18.250;2022-08-05T10:11:44;33.50;44.70
23507;DHT22;11930;53.076;18.250;2022-08-05T10:14:31;33.80;46.40
23507;DHT22;11930;53.076;18.250;2022-08-05T10:17:12;33.90;42.20
23507;DHT22;11930;53.076;18.250;2022-08-05T10:19:38;33.80;42.60
23507;DHT22;11930;53.076;18.250;2022-08-05T10:22:08;33.70;43.20
23507;DHT22;11930;53.076;18.250;2022-08-05T10:24:35;33.50;43.60
23507;DHT22;11930;53.076;18.250;2022-08-05T10:27:02;33.40;44.40
23507;DHT22;11930;53.076;18.250;2022-08-05T10:29:29;33.40;44.00
23507;DHT22;11930;53.076;18.250;2022-08-05T10:31:58;33.40;42.70
23507;DHT22;11930;53.076;18.250;2022-08-05T10:34:24;33.10;44.00
23507;DHT22;11930;53.076;18.250;2022-08-05T10:36:51;33.00;44.00
23507;DHT22;11930;53.076;18.250;2022-08-05T10:39:20;32.80;44.20
23507;DHT22;11930;53.076;18.250;2022-08-05T10:42:11;32.80;43.80
23507;DHT22;11930;53.076;18.250;2022-08-05T10:44:36;32.80;44.30
23507;DHT22;11930;53.076;18.250;2022-08-05T10:47:11;33.10;43.90
23507;DHT22;11930;53.076;18.250;2022-08-05T10:52:41;33.10;43.70
23507;DHT22;11930;53.076;18.250;2022-08-05T10:55:10;33.20;42.50
23507;DHT22;11930;53.076;18.250;2022-08-05T10:57:36;33.20;43.30
23507;DHT22;11930;53.076;18.250;2022-08-05T11:00:19;33.40;43.80
23507;DHT22;11930;53.076;18.250;2022-08-05T11:03:08;33.30;44.50
23507;DHT22;11930;53.076;18.250;2022-08-05T11:05:35;33.30;43.70
23507;DHT22;11930;53.076;18.250;2022-08-05T11:08:05;33.20;43.90
23507;DHT22;11930;53.076;18.250;2022-08-05T11:10:33;33.30;45.00
23507;DHT22;11930;53.076;18.250;2022-08-05T11:13:02;33.40;44.70
23507;DHT22;11930;53.076;18.250;2022-08-05T11:15:34;33.20;44.30
23507;DHT22;11930;53.076;18.250;2022-08-05T11:18:24;33.20;44.50
23507;DHT22;11930;53.076;18.250;2022-08-05T11:20:52;33.40;43.50
23507;DHT22;11930;53.076;18.250;2022-08-05T11:23:51;33.30;43.40
23507;DHT22;11930;53.076;18.250;2022-08-05T11:26:23;33.30;43.70
23507;DHT22;11930;53.076;18.250;2022-08-05T11:28:51;33.20;43.50
23507;DHT22;11930;53.076;18.250;2022-08-05T11:31:19;33.20;43.80
23507;DHT22;11930;53.076;18.250;2022-08-05T11:36:15;33.10;43.80
23507;DHT22;11930;53.076;18.250;2022-08-05T11:41:25;32.90;45.90
23507;DHT22;11930;53.076;18.250;2022-08-05T11:43:59;32.90;43.20
23507;DHT22;11930;53.076;18.250;2022-08-05T11:48:54;32.90;43.70
23507;DHT22;11930;53.076;18.250;2022-08-05T11:51:21;32.90;43.70
23507;DHT22;11930;53.076;18.250;2022-08-05T11:53:48;32.80;43.40
23507;DHT22;11930;53.076;18.250;2022-08-05T11:56:14;32.50;44.00
23507;DHT22;11930;53.076;18.250;2022-08-05T11:58:42;32.70;44.30
23507;DHT22;11930;53.076;18.250;2022-08-05T12:01:13;32.70;44.20
23507;DHT22;11930;53.076;18.250;2022-08-05T12:03:52;32.80;43.50
23507;DHT22;11930;53.076;18.250;2022-08-05T12:06:25;32.90;43.90
23507;DHT22;11930;53.076;18.250;2022-08-05T12:08:58;32.80;43.20
23507;DHT22;11930;53.076;18.250;2022-08-05T12:11:26;32.80;44.60
23507;DHT22;11930;53.076;18.250;2022-08-05T12:13:59;32.80;43.40
23507;DHT22;11930;53.076;18.250;2022-08-05T12:16:30;32.70;44.00
23507;DHT22;11930;53.076;18.250;2022-08-05T12:18:56;32.70;45.20
23507;DHT22;11930;53.076;18.250;2022-08-05T12:21:32;32.80;44.00
23507;DHT22;11930;53.076;18.250;2022-08-05T12:24:05;32.90;43.00
23507;DHT22;11930;53.076;18.250;2022-08-05T12:26:32;33.10;43.30
23507;DHT22;11930;53.076;18.250;2022-08-05T12:28:58;32.90;43.50
23507;DHT22;11930;53.076;18.250;2022-08-05T12:31:24;33.00;42.90
23507;DHT22;11930;53.076;18.250;2022-08-05T12:33:50;33.20;42.50
23507;DHT22;11930;53.076;18.250;2022-08-05T12:36:17;33.30;43.90
23507;DHT22;11930;53.076;18.250;2022-08-05T12:38:43;33.40;42.60
23507;DHT22;11930;53.076;18.250;2022-08-05T12:41:14;33.40;42.90
23507;DHT22;11930;53.076;18.250;2022-08-05T12:43:54;33.50;43.80
23507;DHT22;11930;53.076;18.250;2022-08-05T12:46:21;33.50;42.80
23507;DHT22;11930;53.076;18.250;2022-08-05T12:48:58;33.40;41.70
23507;DHT22;11930;53.076;18.250;2022-08-05T12:51:24;33.30;42.80
23507;DHT22;11930;53.076;18.250;2022-08-05T12:53:58;33.20;42.50
23507;DHT22;11930;53.076;18.250;2022-08-05T12:56:25;33.10;42.40
23507;DHT22;11930;53.076;18.250;2022-08-05T12:59:13;33.00;43.00
23507;DHT22;11930;53.076;18.250;2022-08-05T13:01:41;32.80;42.60
23507;DHT22;11930;53.076;18.250;2022-08-05T13:04:08;32.50;43.90
23507;DHT22;11930;53.076;18.250;2022-08-05T13:06:39;32.50;43.60
23507;DHT22;11930;53.076;18.250;2022-08-05T13:09:07;32.60;43.90
23507;DHT22;11930;53.076;18.250;2022-08-05T13:11:38;32.80;44.70
23507;DHT22;11930;53.076;18.250;2022-08-05T13:14:15;33.00;43.50
23507;DHT22;11930;53.076;18.250;2022-08-05T13:16:50;33.00;43.00
23507;DHT22;11930;53.076;18.250;2022-08-05T13:19:16;33.30;43.20
23507;DHT22;11930;53.076;18.250;2022-08-05T13:21:45;33.30;42.80
23507;DHT22;11930;53.076;18.250;2022-08-05T13:24:12;33.20;43.00
23507;DHT22;11930;53.076;18.250;2022-08-05T13:26:37;33.40;43.00
23507;DHT22;11930;53.076;18.250;2022-08-05T13:29:03;33.40;44.10
23507;DHT22;11930;53.076;18.250;2022-08-05T13:31:30;33.30;43.00
23507;DHT22;11930;53.076;18.250;2022-08-05T13:33:55;33.10;44.10
23507;DHT22;11930;53.076;18.250;2022-08-05T13:36:21;33.00;44.10
23507;DHT22;11930;53.076;18.250;2022-08-05T13:38:47;33.00;44.90
23507;DHT22;11930;53.076;18.250;2022-08-05T13:41:13;33.00;44.50
23507;DHT22;11930;53.076;18.250;2022-08-05T13:43:40;33.00;44.70
23507;DHT22;11930;53.076;18.250;2022-08-05T13:46:09;32.90;44.70
23507;DHT22;11930;53.076;18.250;2022-08-05T13:48:37;32.90;44.90
23507;DHT22;11930;53.076;18.250;2022-08-05T13:51:10;32.90;45.60
23507;DHT22;11930;53.076;18.250;2022-08-05T13:53:38;32.80;45.90
23507;DHT22;11930;53.076;18.250;2022-08-05T13:56:04;32.60;47.00
23507;DHT22;11930;53.076;18.250;2022-08-05T13:58:30;32.50;46.10
23507;DHT22;11930;53.076;18.250;2022-08-05T14:00:57;32.50;46.30
23507;DHT22;11930;53.076;18.250;2022-08-05T14:03:24;32.50;46.50
23507;DHT22;11930;53.076;18.250;2022-08-05T14:05:53;32.50;47.70
23507;DHT22;11930;53.076;18.250;2022-08-05T14:08:19;32.50;46.50
23507;DHT22;11930;53.076;18.250;2022-08-05T14:10:45;32.50;46.90
23507;DHT22;11930;53.076;18.250;2022-08-05T14:13:11;32.50;46.50
23507;DHT22;11930;53.076;18.250;2022-08-05T14:15:37;32.40;47.10
23507;DHT22;11930;53.076;18.250;2022-08-05T14:18:04;32.40;47.30
23507;DHT22;11930;53.076;18.250;2022-08-05T14:20:30;32.40;47.40
23507;DHT22;11930;53.076;18.250;2022-08-05T14:23:00;32.40;47.30
23507;DHT22;11930;53.076;18.250;2022-08-05T14:25:26;32.30;48.30
23507;DHT22;11930;53.076;18.250;2022-08-05T14:27:52;32.30;47.90
23507;DHT22;11930;53.076;18.250;2022-08-05T14:30:18;32.30;47.10
23507;DHT22;11930;53.076;18.250;2022-08-05T14:32:44;32.20;47.00
23507;DHT22;11930;53.076;18.250;2022-08-05T14:35:10;32.20;47.90
23507;DHT22;11930;53.076;18.250;2022-08-05T14:37:39;32.20;47.60
23507;DHT22;11930;53.076;18.250;2022-08-05T14:40:06;32.30;47.60
23507;DHT22;11930;53.076;18.250;2022-08-05T14:42:32;32.30;47.30
23507;DHT22;11930;53.076;18.250;2022-08-05T14:44:58;32.40;48.00
23507;DHT22;11930;53.076;18.250;2022-08-05T14:47:24;32.50;47.00
23507;DHT22;11930;53.076;18.250;2022-08-05T14:49:50;32.50;46.70
23507;DHT22;11930;53.076;18.250;2022-08-05T14:52:16;32.50;46.60
23507;DHT22;11930;53.076;18.250;2022-08-05T14:54:42;32.50;47.00
23507;DHT22;11930;53.076;18.250;2022-08-05T14:57:08;32.50;47.00
23507;DHT22;11930;53.076;18.250;2022-08-05T14:59:34;32.40;47.00
23507;DHT22;11930;53.076;18.250;2022-08-05T15:01:59;32.40;47.20
23507;DHT22;11930;53.076;18.250;2022-08-05T15:04:26;32.50;47.50
23507;DHT22;11930;53.076;18.250;2022-08-05T15:06:52;32.50;46.50
23507;DHT22;11930;53.076;18.250;2022-08-05T15:09:20;32.50;46.70
23507;DHT22;11930;53.076;18.250;2022-08-05T15:11:46;32.50;47.00
23507;DHT22;11930;53.076;18.250;2022-08-05T15:14:12;32.40;47.00
23507;DHT22;11930;53.076;18.250;2022-08-05T15:16:38;32.30;47.40
23507;DHT22;11930;53.076;18.250;2022-08-05T15:19:04;32.20;47.30
23507;DHT22;11930;53.076;18.250;2022-08-05T15:21:30;32.20;47.30
23507;DHT22;11930;53.076;18.250;2022-08-05T15:23:56;32.30;47.20
23507;DHT22;11930;53.076;18.250;2022-08-05T15:26:22;32.40;47.40
23507;DHT22;11930;53.076;18.250;2022-08-05T15:28:48;32.40;48.10
23507;DHT22;11930;53.076;18.250;2022-08-05T15:31:14;32.50;47.30
23507;DHT22;11930;53.076;18.250;2022-08-05T15:33:40;32.40;47.00
23507;DHT22;11930;53.076;18.250;2022-08-05T15:36:07;32.40;47.00
23507;DHT22;11930;53.076;18.250;2022-08-05T15:38:34;32.30;47.30
23507;DHT22;11930;53.076;18.250;2022-08-05T15:41:00;32.30;47.20
23507;DHT22;11930;53.076;18.250;2022-08-05T15:43:27;32.30;46.90
23507;DHT22;11930;53.076;18.250;2022-08-05T15:45:53;32.20;46.90